createdAt,value
2018-09-05T00:02:17.578Z,99.90
2018-09-05T00:04:46.017Z,99.90
2018-09-05T00:07:14.523Z,99.90
2018-09-05T00:09:43.010Z,99.90
2018-09-05T00:12:11.430Z,99.90
2018-09-05T00:14:39.929Z,99.90
2018-09-05T00:17:08.389Z,99.90
2018-09-05T00:19:36.869Z,99.90
2018-09-05T00:22:05.349Z,99.90
2018-09-05T00:24:33.845Z,99.90
2018-09-05T00:27:02.335Z,99.90
2018-09-05T00:29:30.819Z,99.90
2018-09-05T00:31:59.305Z,99.90
2018-09-05T00:34:27.785Z,99.90
2018-09-05T00:36:56.319Z,99.90
2018-09-05T00:39:24.785Z,99.90
2018-09-05T00:41:53.235Z,99.90
2018-09-05T00:44:21.764Z,99.90
2018-09-05T00:46:50.213Z,99.90
2018-09-05T00:49:18.727Z,99.90
2018-09-05T00:51:47.216Z,99.90
2018-09-05T00:54:15.719Z,99.90
2018-09-05T00:56:44.221Z,99.90
2018-09-05T00:59:12.687Z,99.90
2018-09-05T01:01:41.167Z,99.90
2018-09-05T01:04:09.642Z,99.90
2018-09-05T01:06:38.115Z,99.90
2018-09-05T01:09:07.748Z,99.90
2018-09-05T01:11:36.482Z,99.90
2018-09-05T01:14:05.129Z,99.90
2018-09-05T01:16:33.783Z,99.90
2018-09-05T01:19:02.386Z,99.90
2018-09-05T01:21:31.038Z,99.90
2018-09-05T01:23:59.776Z,99.90
2018-09-05T01:26:29.086Z,99.90
2018-09-05T01:28:57.750Z,99.90
2018-09-05T01:31:27.826Z,99.90
2018-09-05T01:33:56.542Z,99.90
2018-09-05T01:36:25.176Z,99.90
2018-09-05T01:38:53.764Z,99.90
2018-09-05T01:41:22.346Z,99.90
2018-09-05T01:43:50.943Z,99.90
2018-09-05T01:46:19.528Z,99.90
2018-09-05T01:48:48.155Z,99.90
2018-09-05T01:51:16.678Z,99.90
2018-09-05T01:53:45.312Z,99.90
2018-09-05T01:56:14.043Z,99.90
2018-09-05T01:58:42.684Z,99.90
2018-09-05T02:01:11.304Z,99.90
2018-09-05T02:03:39.904Z,99.90
2018-09-05T02:06:08.566Z,99.90
2018-09-05T02:08:37.076Z,99.90
2018-09-05T02:11:05.537Z,99.90
2018-09-05T02:13:34.014Z,99.90
2018-09-05T02:16:02.455Z,99.90
2018-09-05T02:18:30.937Z,99.90
2018-09-05T02:20:59.423Z,99.90
2018-09-05T02:23:27.894Z,99.90
2018-09-05T02:25:56.361Z,99.90
2018-09-05T02:28:24.869Z,99.90
2018-09-05T02:30:53.336Z,99.90
2018-09-05T02:33:21.799Z,99.90
2018-09-05T02:35:50.265Z,99.90
2018-09-05T02:38:18.731Z,99.90
2018-09-05T02:40:47.203Z,99.90
2018-09-05T02:43:19.858Z,99.90
2018-09-05T02:45:48.317Z,99.90
2018-09-05T02:48:16.791Z,99.90
2018-09-05T02:50:45.267Z,99.90
2018-09-05T02:53:13.719Z,99.90
2018-09-05T02:55:47.604Z,99.90
2018-09-05T02:58:16.035Z,99.90
2018-09-05T03:00:44.532Z,99.90
2018-09-05T03:03:13.022Z,99.90
2018-09-05T03:05:41.472Z,99.90
2018-09-05T03:08:09.927Z,99.90
2018-09-05T03:10:39.016Z,99.90
2018-09-05T03:13:07.580Z,99.90
2018-09-05T03:15:36.152Z,99.90
2018-09-05T03:18:04.670Z,99.90
2018-09-05T03:20:33.242Z,99.90
2018-09-05T03:23:01.694Z,99.90
2018-09-05T03:26:06.376Z,99.90
2018-09-05T03:28:35.107Z,99.90
2018-09-05T03:31:03.824Z,99.90
2018-09-05T03:33:32.471Z,99.90
2018-09-05T03:36:01.024Z,99.90
2018-09-05T03:38:29.687Z,99.90
2018-09-05T03:41:04.712Z,99.90
2018-09-05T03:43:33.306Z,99.90
2018-09-05T03:46:01.912Z,99.90
2018-09-05T03:48:30.541Z,99.90
2018-09-05T03:50:59.089Z,99.90
2018-09-05T03:53:27.980Z,99.90
2018-09-05T03:55:56.575Z,99.90
2018-09-05T03:58:25.006Z,99.90
2018-09-05T04:00:53.711Z,99.90
2018-09-05T04:03:22.259Z,99.90
2018-09-05T04:05:50.709Z,99.90
2018-09-05T04:08:19.165Z,99.90
2018-09-05T04:10:47.636Z,99.90
2018-09-05T04:13:16.093Z,99.90
2018-09-05T04:15:44.611Z,99.90
2018-09-05T04:18:13.121Z,99.90
2018-09-05T04:20:41.751Z,99.90
2018-09-05T04:23:10.241Z,99.90
2018-09-05T04:25:38.655Z,99.90
2018-09-05T04:28:07.227Z,99.90
2018-09-05T04:30:35.767Z,99.90
2018-09-05T04:33:04.185Z,99.90
2018-09-05T04:35:32.648Z,99.90
2018-09-05T04:38:01.109Z,99.90
2018-09-05T04:40:29.589Z,99.90
2018-09-05T04:42:59.589Z,99.90
2018-09-05T04:45:39.949Z,99.90
2018-09-05T04:48:08.740Z,99.90
2018-09-05T04:50:38.940Z,99.90
2018-09-05T04:53:07.565Z,99.90
2018-09-05T04:55:36.029Z,99.90
2018-09-05T04:58:04.603Z,99.90
2018-09-05T05:00:33.966Z,99.90
2018-09-05T05:03:03.506Z,99.90
2018-09-05T05:05:34.751Z,99.90
2018-09-05T05:08:05.370Z,99.90
2018-09-05T05:10:35.080Z,99.90
2018-09-05T05:13:11.579Z,99.90
2018-09-05T05:15:40.080Z,99.90
2018-09-05T05:18:08.578Z,99.90
2018-09-05T05:20:37.119Z,99.90
2018-09-05T05:23:06.097Z,99.90
2018-09-05T05:25:34.634Z,99.90
2018-09-05T05:28:03.118Z,99.90
2018-09-05T05:30:33.748Z,99.90
2018-09-05T05:33:03.254Z,99.90
2018-09-05T05:35:33.797Z,99.90
2018-09-05T05:38:08.522Z,99.90
2018-09-05T05:40:38.102Z,99.90
2018-09-05T05:43:06.670Z,99.90
2018-09-05T05:45:35.272Z,99.90
2018-09-05T05:48:04.100Z,99.90
2018-09-05T05:50:32.573Z,99.90
2018-09-05T05:53:01.006Z,99.90
2018-09-05T05:55:29.457Z,99.90
2018-09-05T05:57:58.026Z,99.90
2018-09-05T06:00:26.645Z,99.90
2018-09-05T06:02:55.934Z,99.90
2018-09-05T06:05:25.212Z,99.90
2018-09-05T06:07:53.661Z,99.90
2018-09-05T06:10:25.590Z,99.90
2018-09-05T06:12:55.803Z,99.90
2018-09-05T06:15:24.971Z,99.70
2018-09-05T06:17:53.451Z,99.30
2018-09-05T06:20:21.884Z,99.00
2018-09-05T06:22:50.427Z,98.90
2018-09-05T06:25:19.060Z,98.70
2018-09-05T06:27:47.580Z,98.50
2018-09-05T06:30:16.065Z,98.50
2018-09-05T06:32:44.525Z,98.50
2018-09-05T06:35:12.985Z,98.40
2018-09-05T06:37:41.451Z,98.10
2018-09-05T06:40:09.875Z,97.90
2018-09-05T06:42:38.352Z,97.80
2018-09-05T06:45:06.944Z,97.80
2018-09-05T06:47:35.315Z,97.70
2018-09-05T06:50:03.853Z,97.50
2018-09-05T06:52:32.288Z,97.10
2018-09-05T06:55:00.713Z,96.70
2018-09-05T06:57:29.183Z,96.00
2018-09-05T06:59:57.665Z,96.00
2018-09-05T07:02:27.071Z,96.10
2018-09-05T07:04:55.526Z,96.00
2018-09-05T07:07:24.072Z,96.10
2018-09-05T07:09:52.535Z,96.60
2018-09-05T07:12:21.023Z,96.50
2018-09-05T07:14:49.467Z,96.50
2018-09-05T07:17:18.012Z,96.70
2018-09-05T07:19:46.509Z,96.70
2018-09-05T07:22:14.964Z,96.90
2018-09-05T07:24:43.448Z,96.70
2018-09-05T07:27:11.930Z,96.80
2018-09-05T07:29:40.378Z,96.80
2018-09-05T07:32:08.840Z,96.70
2018-09-05T07:34:37.272Z,97.10
2018-09-05T07:37:05.704Z,96.50
2018-09-05T07:39:34.172Z,96.10
2018-09-05T07:42:02.646Z,95.50
2018-09-05T07:44:31.093Z,95.30
2018-09-05T07:46:59.605Z,95.10
2018-09-05T07:49:28.059Z,95.10
2018-09-05T07:51:56.540Z,94.90
2018-09-05T07:54:25.015Z,95.60
2018-09-05T07:56:53.503Z,95.90
2018-09-05T07:59:21.975Z,96.10
2018-09-05T08:01:50.422Z,96.20
2018-09-05T08:04:18.922Z,96.00
2018-09-05T08:06:47.373Z,95.80
2018-09-05T08:09:15.808Z,95.70
2018-09-05T08:11:44.300Z,95.50
2018-09-05T08:14:12.699Z,95.30
2018-09-05T08:16:41.175Z,94.80
2018-09-05T08:19:09.619Z,94.70
2018-09-05T08:21:38.074Z,95.00
2018-09-05T08:24:06.558Z,95.20
2018-09-05T08:26:35.036Z,95.50
2018-09-05T08:29:03.552Z,95.50
2018-09-05T08:31:31.962Z,95.70
2018-09-05T08:34:00.877Z,95.80
2018-09-05T08:36:29.471Z,96.00
2018-09-05T08:38:57.858Z,96.50
2018-09-05T08:41:26.275Z,96.20
2018-09-05T08:43:54.931Z,96.10
2018-09-05T08:46:23.256Z,96.20
2018-09-05T08:48:51.700Z,96.20
2018-09-05T08:51:20.349Z,96.30
2018-09-05T08:53:49.872Z,96.20
2018-09-05T08:56:18.415Z,95.90
2018-09-05T08:58:46.914Z,95.80
2018-09-05T09:01:15.336Z,95.70
2018-09-05T09:03:43.780Z,96.00
2018-09-05T09:06:12.218Z,96.20
2018-09-05T09:08:40.740Z,96.10
2018-09-05T09:11:14.679Z,96.00
2018-09-05T09:13:43.133Z,96.00
2018-09-05T09:16:11.590Z,95.90
2018-09-05T09:18:40.096Z,95.50
2018-09-05T09:21:08.576Z,95.40
2018-09-05T09:23:37.078Z,95.20
2018-09-05T09:26:05.836Z,95.10
2018-09-05T09:28:34.274Z,95.00
2018-09-05T09:31:02.741Z,94.80
2018-09-05T09:33:31.208Z,94.70
2018-09-05T09:35:59.696Z,94.70
2018-09-05T09:38:28.142Z,94.50
2018-09-05T09:40:56.772Z,94.20
2018-09-05T09:43:25.187Z,94.00
2018-09-05T09:45:53.688Z,93.70
2018-09-05T09:48:22.130Z,93.10
2018-09-05T09:50:50.546Z,92.70
2018-09-05T09:53:19.003Z,92.30
2018-09-05T09:55:47.487Z,92.00
2018-09-05T09:58:15.968Z,91.20
2018-09-05T10:00:49.601Z,90.50
2018-09-05T10:03:24.819Z,90.00
2018-09-05T10:06:56.776Z,90.10
2018-09-05T10:10:05.173Z,90.10
2018-09-05T10:12:56.745Z,90.00
2018-09-05T10:15:30.579Z,88.60
2018-09-05T10:18:04.355Z,89.10
2018-09-05T10:20:32.795Z,89.10
2018-09-05T10:23:01.279Z,88.10
2018-09-05T10:25:29.712Z,87.70
2018-09-05T10:27:58.362Z,86.70
2018-09-05T10:30:26.791Z,85.90
2018-09-05T10:32:55.241Z,84.80
2018-09-05T10:35:23.715Z,83.80
2018-09-05T10:37:52.159Z,83.70
2018-09-05T10:40:20.569Z,82.00
2018-09-05T10:42:49.053Z,81.10
2018-09-05T10:45:17.545Z,80.90
2018-09-05T10:47:46.001Z,80.10
2018-09-05T10:50:14.426Z,78.90
2018-09-05T10:52:42.952Z,76.50
2018-09-05T10:55:11.451Z,75.50
2018-09-05T10:57:39.960Z,73.50
2018-09-05T11:00:08.510Z,69.20
2018-09-05T11:02:36.950Z,64.10
2018-09-05T11:05:05.577Z,62.30
2018-09-05T11:07:34.531Z,57.60
2018-09-05T11:10:02.978Z,55.60
2018-09-05T11:12:31.700Z,55.10
2018-09-05T11:15:00.134Z,53.50
2018-09-05T11:17:28.594Z,55.40
2018-09-05T11:19:57.276Z,56.10
2018-09-05T11:22:25.836Z,58.60
2018-09-05T11:24:54.268Z,63.60
2018-09-05T11:27:22.728Z,67.10
2018-09-05T11:29:51.158Z,67.90
2018-09-05T11:32:19.641Z,65.70
2018-09-05T11:34:48.080Z,62.50
2018-09-05T11:37:17.395Z,61.30
2018-09-05T11:39:45.896Z,57.60
2018-09-05T11:42:14.351Z,53.60
2018-09-05T11:44:42.831Z,50.30
2018-09-05T11:47:11.313Z,48.10
2018-09-05T11:49:39.771Z,46.10
2018-09-05T11:52:08.273Z,47.20
2018-09-05T11:54:36.751Z,48.20
2018-09-05T11:57:05.536Z,52.30
2018-09-05T11:59:34.488Z,55.70
2018-09-05T12:02:03.112Z,57.90
2018-09-05T12:04:32.812Z,59.30
2018-09-05T12:07:01.584Z,60.90
2018-09-05T12:09:30.013Z,61.40
2018-09-05T12:11:58.473Z,62.80
2018-09-05T12:14:26.919Z,63.10
2018-09-05T12:16:55.394Z,64.50
2018-09-05T12:19:23.840Z,66.30
2018-09-05T12:21:52.302Z,66.60
2018-09-05T12:24:20.747Z,67.00
2018-09-05T12:26:49.266Z,67.10
2018-09-05T12:29:18.614Z,68.80
2018-09-05T12:31:47.134Z,68.30
2018-09-05T12:34:22.322Z,68.60
2018-09-05T12:36:50.779Z,68.60
2018-09-05T12:39:19.238Z,69.50
2018-09-05T12:41:47.846Z,70.60
2018-09-05T12:44:16.314Z,71.30
2018-09-05T12:46:44.806Z,72.60
2018-09-05T12:49:13.286Z,71.90
2018-09-05T12:51:41.763Z,71.10
2018-09-05T12:54:11.118Z,70.70
2018-09-05T12:56:39.583Z,71.30
2018-09-05T12:59:08.127Z,70.60
2018-09-05T13:01:36.615Z,70.10
2018-09-05T13:04:05.130Z,70.30
2018-09-05T13:06:34.462Z,69.60
2018-09-05T13:09:02.997Z,70.50
2018-09-05T13:11:31.555Z,73.10
2018-09-05T13:13:59.981Z,75.00
2018-09-05T13:16:28.462Z,75.80
2018-09-05T13:18:56.979Z,74.90
2018-09-05T13:21:25.516Z,76.00
2018-09-05T13:23:54.005Z,77.00
2018-09-05T13:26:22.545Z,77.40
2018-09-05T13:28:51.012Z,78.10
2018-09-05T13:31:19.485Z,79.50
2018-09-05T13:33:48.199Z,78.80
2018-09-05T13:36:16.743Z,78.50
2018-09-05T13:38:45.265Z,79.70
2018-09-05T13:41:13.757Z,80.90
2018-09-05T13:43:42.257Z,81.60
2018-09-05T13:46:10.867Z,81.20
2018-09-05T13:48:39.324Z,80.50
2018-09-05T13:51:07.899Z,80.30
2018-09-05T13:53:36.451Z,78.90
2018-09-05T13:56:04.904Z,78.00
2018-09-05T13:58:33.389Z,76.90
2018-09-05T14:01:01.955Z,73.70
2018-09-05T14:03:30.447Z,69.20
2018-09-05T14:05:58.933Z,65.10
2018-09-05T14:08:27.397Z,66.50
2018-09-05T14:10:55.824Z,66.90
2018-09-05T14:13:24.273Z,66.90
2018-09-05T14:15:52.804Z,65.60
2018-09-05T14:18:21.268Z,65.90
2018-09-05T14:20:49.813Z,67.50
2018-09-05T14:23:18.340Z,68.20
2018-09-05T14:25:46.790Z,70.00
2018-09-05T14:28:15.281Z,71.10
2018-09-05T14:30:43.784Z,73.60
2018-09-05T14:33:12.355Z,76.30
2018-09-05T14:35:41.106Z,77.30
2018-09-05T14:38:09.622Z,77.10
2018-09-05T14:40:38.210Z,79.30
2018-09-05T14:43:06.842Z,80.70
2018-09-05T14:45:35.364Z,81.90
2018-09-05T14:48:03.892Z,82.30
2018-09-05T14:50:32.446Z,83.10
2018-09-05T14:53:01.018Z,83.80
2018-09-05T14:55:29.476Z,84.50
2018-09-05T14:57:57.948Z,85.00
2018-09-05T15:00:26.398Z,84.40
2018-09-05T15:02:54.816Z,82.90
2018-09-05T15:05:23.256Z,81.70
2018-09-05T15:07:52.400Z,78.50
2018-09-05T15:10:20.837Z,77.30
2018-09-05T15:12:49.310Z,77.20
2018-09-05T15:15:17.846Z,74.60
2018-09-05T15:17:46.353Z,73.40
2018-09-05T15:20:14.881Z,73.10
2018-09-05T15:22:43.305Z,74.40
2018-09-05T15:25:11.823Z,75.00
2018-09-05T15:27:40.290Z,77.80
2018-09-05T15:30:09.469Z,77.40
2018-09-05T15:32:37.917Z,77.90
2018-09-05T15:35:06.625Z,78.50
2018-09-05T15:37:35.066Z,79.30
2018-09-05T15:40:03.654Z,78.60
2018-09-05T15:42:32.111Z,79.40
2018-09-05T15:45:00.895Z,81.10
2018-09-05T15:47:29.359Z,81.50
2018-09-05T15:49:58.045Z,81.30
2018-09-05T15:52:26.525Z,81.10
2018-09-05T15:54:55.088Z,80.90
2018-09-05T15:57:24.046Z,81.20
2018-09-05T15:59:53.125Z,82.00
2018-09-05T16:02:21.668Z,83.00
2018-09-05T16:04:50.236Z,83.00
2018-09-05T16:07:18.702Z,83.40
2018-09-05T16:09:47.134Z,84.20
2018-09-05T16:12:15.613Z,84.80
2018-09-05T16:14:44.061Z,85.50
2018-09-05T16:17:12.478Z,85.00
2018-09-05T16:19:40.922Z,85.90
2018-09-05T16:22:09.512Z,86.30
2018-09-05T16:24:38.012Z,86.90
2018-09-05T16:27:06.466Z,87.10
2018-09-05T16:29:35.470Z,87.20
2018-09-05T16:32:04.046Z,87.30
2018-09-05T16:34:32.536Z,87.50
2018-09-05T16:37:00.962Z,86.70
2018-09-05T16:39:29.509Z,86.70
2018-09-05T16:41:57.972Z,86.40
2018-09-05T16:44:26.427Z,86.40
2018-09-05T16:46:54.926Z,86.90
2018-09-05T16:49:23.646Z,87.00
2018-09-05T16:51:52.098Z,87.30
2018-09-05T16:54:20.576Z,87.40
2018-09-05T16:56:49.059Z,88.40
2018-09-05T16:59:17.521Z,89.40
2018-09-05T17:01:45.964Z,90.10
2018-09-05T17:04:14.434Z,90.60
2018-09-05T17:06:42.912Z,90.90
2018-09-05T17:09:12.785Z,91.20
2018-09-05T17:11:41.290Z,91.40
2018-09-05T17:14:09.880Z,91.80
2018-09-05T17:16:38.470Z,91.90
2018-09-05T17:19:06.964Z,92.00
2018-09-05T17:21:35.539Z,92.10
2018-09-05T17:24:04.345Z,92.20
2018-09-05T17:26:33.682Z,92.40
2018-09-05T17:29:02.177Z,92.40
2018-09-05T17:31:30.671Z,92.40
2018-09-05T17:33:59.096Z,92.50
2018-09-05T17:36:27.569Z,92.60
2018-09-05T17:38:56.025Z,92.50
2018-09-05T17:41:25.273Z,92.50
2018-09-05T17:43:53.717Z,92.40
2018-09-05T17:46:22.226Z,92.50
2018-09-05T17:48:50.696Z,92.50
2018-09-05T17:51:19.195Z,92.80
2018-09-05T17:53:47.661Z,93.00
2018-09-05T17:56:16.174Z,93.20
2018-09-05T17:58:44.803Z,93.80
2018-09-05T18:01:16.332Z,93.60
2018-09-05T18:03:44.780Z,93.80
2018-09-05T18:06:13.223Z,93.80
2018-09-05T18:08:41.779Z,93.90
2018-09-05T18:11:10.244Z,93.90
2018-09-05T18:13:38.736Z,94.00
2018-09-05T18:16:07.190Z,94.10
2018-09-05T18:18:35.749Z,94.00
2018-09-05T18:21:04.225Z,94.20
2018-09-05T18:23:32.676Z,94.20
2018-09-05T18:26:01.173Z,94.30
2018-09-05T18:28:29.620Z,94.30
2018-09-05T18:30:58.058Z,94.40
2018-09-05T18:33:26.538Z,94.30
2018-09-05T18:35:55.042Z,94.50
2018-09-05T18:38:23.584Z,94.60
2018-09-05T18:40:52.013Z,94.50
2018-09-05T18:43:20.465Z,94.50
2018-09-05T18:45:49.224Z,94.70
2018-09-05T18:48:17.668Z,94.80
2018-09-05T18:50:46.285Z,94.90
2018-09-05T18:53:14.802Z,95.10
2018-09-05T18:55:44.614Z,95.30
2018-09-05T18:58:13.085Z,95.60
2018-09-05T19:00:41.589Z,95.80
2018-09-05T19:03:10.433Z,96.00
2018-09-05T19:05:38.899Z,96.00
2018-09-05T19:08:07.701Z,96.20
2018-09-05T19:10:36.163Z,96.30
2018-09-05T19:13:04.618Z,96.40
2018-09-05T19:15:33.064Z,96.50
2018-09-05T19:18:01.488Z,96.60
2018-09-05T19:20:29.931Z,96.70
2018-09-05T19:22:58.449Z,96.80
2018-09-05T19:25:26.794Z,96.90
2018-09-05T19:27:55.260Z,97.00
2018-09-05T19:30:23.738Z,97.00
2018-09-05T19:32:52.188Z,97.00
2018-09-05T19:35:20.649Z,97.00
2018-09-05T19:37:49.138Z,97.00
2018-09-05T19:40:17.580Z,96.90
2018-09-05T19:42:46.050Z,96.90
2018-09-05T19:45:14.506Z,96.80
2018-09-05T19:47:42.959Z,96.70
2018-09-05T19:50:11.417Z,96.70
2018-09-05T19:52:39.876Z,96.70
2018-09-05T19:55:08.395Z,96.70
2018-09-05T19:57:36.834Z,96.70
2018-09-05T20:00:05.530Z,97.00
2018-09-05T20:02:33.990Z,96.90
2018-09-05T20:05:02.436Z,96.80
2018-09-05T20:07:30.897Z,96.90
2018-09-05T20:09:59.309Z,97.00
2018-09-05T20:12:27.745Z,97.00
2018-09-05T20:14:56.203Z,96.90
2018-09-05T20:17:24.630Z,96.80
2018-09-05T20:19:53.109Z,96.80
2018-09-05T20:22:21.529Z,96.70
2018-09-05T20:24:50.375Z,96.60
2018-09-05T20:27:18.839Z,96.70
2018-09-05T20:29:47.406Z,96.70
2018-09-05T20:32:15.848Z,96.70
2018-09-05T20:34:44.290Z,96.70
2018-09-05T20:37:12.731Z,96.70
2018-09-05T20:39:41.199Z,96.70
2018-09-05T20:42:09.651Z,96.70
2018-09-05T20:44:38.171Z,96.70
2018-09-05T20:47:06.600Z,96.60
2018-09-05T20:49:35.055Z,96.60
2018-09-05T20:52:03.591Z,96.60
2018-09-05T20:54:31.954Z,96.50
2018-09-05T20:57:00.466Z,96.40
2018-09-05T20:59:28.953Z,96.40
2018-09-05T21:02:04.421Z,96.20
2018-09-05T21:04:32.871Z,96.10
2018-09-05T21:07:01.383Z,95.80
2018-09-05T21:09:29.809Z,95.80
2018-09-05T21:11:58.262Z,95.60
2018-09-05T21:14:26.715Z,95.90
2018-09-05T21:16:55.155Z,95.60
2018-09-05T21:19:23.645Z,95.50
2018-09-05T21:21:52.119Z,95.60
2018-09-05T21:24:20.574Z,95.60
2018-09-05T21:26:49.017Z,95.70
2018-09-05T21:29:17.425Z,95.90
2018-09-05T21:31:45.859Z,96.00
2018-09-05T21:34:14.284Z,96.10
2018-09-05T21:36:42.726Z,96.30
2018-09-05T21:39:11.179Z,96.50
2018-09-05T21:41:39.592Z,96.70
2018-09-05T21:44:08.089Z,96.80
2018-09-05T21:46:36.534Z,97.00
2018-09-05T21:49:05.422Z,97.10
2018-09-05T21:51:33.847Z,97.30
2018-09-05T21:54:02.311Z,97.40
2018-09-05T21:56:30.754Z,97.60
2018-09-05T21:58:59.192Z,97.60
2018-09-05T22:01:27.624Z,97.70
2018-09-05T22:03:56.097Z,97.80
2018-09-05T22:06:24.535Z,98.00
2018-09-05T22:08:52.970Z,98.10
2018-09-05T22:11:25.276Z,98.10
2018-09-05T22:13:54.342Z,98.10
2018-09-05T22:16:22.751Z,98.20
2018-09-05T22:18:51.249Z,98.30
2018-09-05T22:21:19.892Z,98.30
2018-09-05T22:23:48.353Z,98.40
2018-09-05T22:26:17.055Z,98.40
2018-09-05T22:28:45.530Z,98.40
2018-09-05T22:31:13.991Z,98.50
2018-09-05T22:33:42.509Z,98.80
2018-09-05T22:36:10.952Z,98.50
2018-09-05T22:38:39.457Z,98.60
2018-09-05T22:41:07.873Z,98.60
2018-09-05T22:43:47.715Z,98.70
2018-09-05T22:46:27.527Z,98.70
2018-09-05T22:49:07.303Z,98.70
2018-09-05T22:52:19.474Z,98.80
2018-09-05T22:57:18.224Z,98.70
2018-09-05T23:02:04.656Z,98.80
2018-09-05T23:04:42.198Z,98.90
2018-09-05T23:08:27.700Z,98.90
2018-09-05T23:11:07.324Z,98.90
2018-09-05T23:13:47.041Z,99.00
2018-09-05T23:16:26.714Z,99.00
2018-09-05T23:21:09.781Z,99.10
2018-09-05T23:23:49.490Z,99.10
2018-09-05T23:26:17.949Z,99.10
2018-09-05T23:28:46.405Z,99.20
2018-09-05T23:31:14.857Z,99.30
2018-09-05T23:33:43.289Z,99.30
2018-09-05T23:36:11.733Z,99.40
2018-09-05T23:38:40.209Z,99.40
2018-09-05T23:41:09.793Z,99.40
2018-09-05T23:43:38.221Z,99.50
2018-09-05T23:46:06.667Z,99.60
2018-09-05T23:48:35.107Z,99.40
2018-09-05T23:51:03.553Z,99.80
2018-09-05T23:53:32.026Z,99.80
2018-09-05T23:56:00.479Z,99.80
2018-09-05T23:58:28.963Z,99.70
